createdAt,value
2022-09-15T00:00:40.391Z,24.70
2022-09-15T00:01:42.737Z,24.70
2022-09-15T00:02:45.557Z,24.70
2022-09-15T00:03:48.336Z,24.70
2022-09-15T00:04:50.496Z,24.70
2022-09-15T00:05:54.148Z,24.70
2022-09-15T00:06:56.287Z,24.70
2022-09-15T00:07:58.464Z,24.70
2022-09-15T00:09:00.811Z,24.80
2022-09-15T00:10:03.674Z,24.70
2022-09-15T00:11:08.512Z,24.70
2022-09-15T00:12:10.703Z,24.80
2022-09-15T00:13:12.942Z,24.80
2022-09-15T00:14:15.176Z,24.70
2022-09-15T00:15:17.596Z,24.70
2022-09-15T00:16:20.765Z,24.80
2022-09-15T00:17:23.051Z,24.80
2022-09-15T00:18:25.334Z,24.80
2022-09-15T00:19:27.546Z,24.80
2022-09-15T00:20:29.766Z,24.80
2022-09-15T00:21:33.268Z,24.80
2022-09-15T00:22:35.511Z,24.80
2022-09-15T00:23:38.511Z,24.80
2022-09-15T00:24:41.491Z,24.80
2022-09-15T00:25:47.859Z,24.80
2022-09-15T00:26:50.080Z,24.80
2022-09-15T00:27:52.416Z,24.80
2022-09-15T00:28:55.770Z,24.80
2022-09-15T00:29:57.975Z,24.80
2022-09-15T00:31:00.259Z,24.80
2022-09-15T00:32:02.625Z,24.80
2022-09-15T00:33:04.819Z,24.80
2022-09-15T00:34:07.257Z,24.80
2022-09-15T00:35:09.489Z,24.80
2022-09-15T00:36:12.506Z,24.80
2022-09-15T00:37:15.642Z,24.70
2022-09-15T00:38:18.675Z,24.70
2022-09-15T00:39:20.853Z,24.70
2022-09-15T00:40:23.160Z,24.70
2022-09-15T00:41:25.811Z,24.70
2022-09-15T00:42:27.964Z,24.70
2022-09-15T00:43:45.227Z,24.70
2022-09-15T00:44:57.987Z,24.70
2022-09-15T00:46:00.334Z,24.70
2022-09-15T00:47:18.639Z,24.70
2022-09-15T00:48:22.165Z,24.70
2022-09-15T00:49:26.603Z,24.70
2022-09-15T00:50:29.152Z,24.70
2022-09-15T00:51:34.041Z,24.70
2022-09-15T00:52:39.503Z,24.70
2022-09-15T00:53:42.051Z,24.70
2022-09-15T00:54:47.022Z,24.70
2022-09-15T00:55:50.570Z,24.70
2022-09-15T00:56:54.011Z,24.60
2022-09-15T00:57:59.710Z,24.60
2022-09-15T00:59:03.660Z,24.60
2022-09-15T01:00:08.336Z,24.60
2022-09-15T01:01:11.187Z,24.60
2022-09-15T01:02:16.187Z,24.60
2022-09-15T01:03:18.387Z,24.60
2022-09-15T01:04:20.590Z,24.60
2022-09-15T01:05:44.103Z,24.60
2022-09-15T01:06:52.207Z,24.60
2022-09-15T01:08:06.748Z,24.50
2022-09-15T01:09:15.141Z,24.60
2022-09-15T01:10:37.597Z,24.50
2022-09-15T01:11:40.031Z,24.50
2022-09-15T01:12:42.548Z,24.50
2022-09-15T01:13:44.758Z,24.50
2022-09-15T01:14:47.078Z,24.50
2022-09-15T01:15:58.204Z,24.50
2022-09-15T01:17:19.607Z,24.50
2022-09-15T01:18:40.316Z,24.50
2022-09-15T01:20:01.237Z,24.50
2022-09-15T01:21:11.038Z,24.50
2022-09-15T01:22:28.361Z,24.40
2022-09-15T01:23:33.512Z,24.50
2022-09-15T01:24:42.562Z,24.40
2022-09-15T01:25:44.992Z,24.50
2022-09-15T01:26:53.659Z,24.40
2022-09-15T01:28:01.614Z,24.40
2022-09-15T01:29:06.845Z,24.50
2022-09-15T01:30:21.992Z,24.50
2022-09-15T01:31:25.484Z,24.50
2022-09-15T01:33:04.419Z,24.50
2022-09-15T01:34:10.793Z,24.50
2022-09-15T01:35:33.407Z,24.40
2022-09-15T01:36:42.938Z,24.40
2022-09-15T01:37:49.313Z,24.30
2022-09-15T01:38:51.583Z,24.30
2022-09-15T01:39:54.413Z,24.30
2022-09-15T01:41:02.485Z,24.30
2022-09-15T01:42:08.808Z,24.30
2022-09-15T01:43:11.299Z,24.30
2022-09-15T01:44:15.612Z,24.30
2022-09-15T01:45:19.679Z,24.30
2022-09-15T01:46:24.023Z,24.30
2022-09-15T01:47:27.944Z,24.30
2022-09-15T01:48:31.988Z,24.30
2022-09-15T01:49:36.498Z,24.30
2022-09-15T01:50:42.267Z,24.40
2022-09-15T01:51:46.347Z,24.30
2022-09-15T01:52:49.842Z,24.40
2022-09-15T01:53:52.825Z,24.40
2022-09-15T01:54:57.238Z,24.40
2022-09-15T01:56:05.129Z,24.40
2022-09-15T01:57:07.403Z,24.40
2022-09-15T01:58:09.819Z,24.40
2022-09-15T01:59:12.245Z,24.40
2022-09-15T02:00:14.605Z,24.40
2022-09-15T02:01:18.764Z,24.40
2022-09-15T02:02:29.629Z,24.30
2022-09-15T02:03:35.147Z,24.30
2022-09-15T02:04:46.319Z,24.30
2022-09-15T02:05:52.830Z,24.30
2022-09-15T02:06:58.135Z,24.30
2022-09-15T02:08:05.519Z,24.30
2022-09-15T02:09:14.908Z,24.20
2022-09-15T02:10:21.907Z,24.20
2022-09-15T02:11:28.172Z,24.20
2022-09-15T02:12:35.822Z,24.20
2022-09-15T02:13:45.276Z,24.20
2022-09-15T02:14:52.829Z,24.20
2022-09-15T02:15:57.784Z,24.20
2022-09-15T02:17:01.571Z,24.20
2022-09-15T02:18:06.588Z,24.20
2022-09-15T02:19:31.307Z,24.20
2022-09-15T02:20:34.275Z,24.20
2022-09-15T02:21:44.597Z,24.20
2022-09-15T02:22:49.817Z,24.20
2022-09-15T02:23:55.068Z,24.20
2022-09-15T02:25:05.718Z,24.20
2022-09-15T02:26:16.785Z,24.20
2022-09-15T02:27:22.093Z,24.20
2022-09-15T02:28:27.889Z,24.20
2022-09-15T02:29:32.632Z,24.20
2022-09-15T02:30:37.776Z,24.20
2022-09-15T02:31:41.379Z,24.20
2022-09-15T02:32:48.027Z,24.20
2022-09-15T02:34:01.679Z,24.20
2022-09-15T02:35:06.625Z,24.10
2022-09-15T02:36:10.949Z,24.10
2022-09-15T02:37:13.480Z,24.10
2022-09-15T02:38:15.669Z,24.10
2022-09-15T02:39:19.393Z,24.10
2022-09-15T02:40:22.452Z,24.10
2022-09-15T02:41:24.849Z,24.10
2022-09-15T02:42:28.145Z,24.10
2022-09-15T02:43:30.995Z,24.10
2022-09-15T02:44:33.499Z,24.10
2022-09-15T02:45:36.096Z,24.10
2022-09-15T02:46:39.653Z,24.10
2022-09-15T02:47:41.797Z,24.10
2022-09-15T02:48:43.993Z,24.10
2022-09-15T02:49:46.133Z,24.20
2022-09-15T02:50:48.351Z,24.20
2022-09-15T02:51:50.467Z,24.20
2022-09-15T02:52:53.723Z,24.20
2022-09-15T02:53:55.871Z,24.20
2022-09-15T02:54:58.139Z,24.20
2022-09-15T02:56:00.297Z,24.20
2022-09-15T02:57:02.496Z,24.20
2022-09-15T02:58:04.719Z,24.20
2022-09-15T02:59:06.839Z,24.30
2022-09-15T03:00:16.709Z,24.30
2022-09-15T03:01:19.191Z,24.30
2022-09-15T03:02:21.594Z,24.30
2022-09-15T03:03:24.306Z,24.20
2022-09-15T03:04:26.463Z,24.20
2022-09-15T03:05:29.639Z,24.20
2022-09-15T03:06:34.757Z,24.10
2022-09-15T03:07:38.038Z,24.10
2022-09-15T03:08:40.280Z,24.20
2022-09-15T03:09:42.511Z,24.20
2022-09-15T03:10:45.139Z,24.20
2022-09-15T03:11:47.325Z,24.30
2022-09-15T03:12:51.399Z,24.30
2022-09-15T03:13:54.675Z,24.30
2022-09-15T03:14:57.054Z,24.30
2022-09-15T03:15:59.323Z,24.40
2022-09-15T03:17:02.260Z,24.40
2022-09-15T03:18:04.621Z,24.30
2022-09-15T03:19:06.786Z,24.40
2022-09-15T03:20:10.408Z,24.40
2022-09-15T03:21:13.420Z,24.40
2022-09-15T03:22:15.607Z,24.40
2022-09-15T03:23:17.727Z,24.40
2022-09-15T03:24:20.330Z,24.40
2022-09-15T03:25:23.411Z,24.50
2022-09-15T03:26:25.972Z,24.50
2022-09-15T03:27:28.494Z,24.50
2022-09-15T03:28:30.735Z,24.50
2022-09-15T03:29:32.911Z,24.50
2022-09-15T03:30:35.378Z,24.50
2022-09-15T03:31:37.668Z,24.50
2022-09-15T03:32:40.422Z,24.50
2022-09-15T03:33:42.657Z,24.50
2022-09-15T03:34:44.773Z,24.60
2022-09-15T03:35:47.902Z,24.60
2022-09-15T03:36:50.072Z,24.50
2022-09-15T03:37:52.317Z,24.60
2022-09-15T03:38:56.095Z,24.50
2022-09-15T03:39:58.722Z,24.50
2022-09-15T03:41:08.576Z,24.50
2022-09-15T03:42:10.881Z,24.60
2022-09-15T03:43:18.015Z,24.50
2022-09-15T03:44:20.924Z,24.50
2022-09-15T03:45:23.069Z,24.50
2022-09-15T03:46:25.465Z,24.50
2022-09-15T03:47:27.663Z,24.50
2022-09-15T03:48:30.701Z,24.50
2022-09-15T03:49:33.224Z,24.50
2022-09-15T03:50:35.552Z,24.40
2022-09-15T03:51:38.123Z,24.40
2022-09-15T03:52:40.329Z,24.40
2022-09-15T03:53:42.731Z,24.40
2022-09-15T03:54:44.990Z,24.40
2022-09-15T03:55:48.249Z,24.40
2022-09-15T03:56:51.874Z,24.40
2022-09-15T03:57:54.354Z,24.40
2022-09-15T03:58:56.822Z,24.40
2022-09-15T03:59:59.770Z,24.40
2022-09-15T04:01:01.983Z,24.40
2022-09-15T04:02:04.208Z,24.50
2022-09-15T04:03:06.885Z,24.50
2022-09-15T04:04:09.131Z,24.40
2022-09-15T04:05:13.252Z,24.50
2022-09-15T04:06:16.001Z,24.50
2022-09-15T04:07:18.121Z,24.50
2022-09-15T04:08:20.324Z,24.50
2022-09-15T04:09:22.547Z,24.50
2022-09-15T04:10:24.860Z,24.50
2022-09-15T04:11:27.055Z,24.50
2022-09-15T04:12:29.548Z,24.50
2022-09-15T04:13:31.927Z,24.50
2022-09-15T04:14:34.468Z,24.50
2022-09-15T04:15:36.622Z,24.50
2022-09-15T04:16:39.033Z,24.50
2022-09-15T04:17:41.417Z,24.60
2022-09-15T04:18:43.835Z,24.60
2022-09-15T04:19:46.208Z,24.60
2022-09-15T04:20:48.377Z,24.60
2022-09-15T04:21:50.712Z,24.60
2022-09-15T04:22:52.908Z,24.60
2022-09-15T04:23:55.285Z,24.60
2022-09-15T04:24:57.570Z,24.60
2022-09-15T04:26:01.192Z,24.60
2022-09-15T04:27:03.444Z,24.60
2022-09-15T04:28:06.292Z,24.60
2022-09-15T04:29:12.112Z,24.50
2022-09-15T04:30:14.330Z,24.50
2022-09-15T04:31:17.256Z,24.50
2022-09-15T04:32:20.384Z,24.50
2022-09-15T04:33:22.611Z,24.50
2022-09-15T04:34:25.404Z,24.50
2022-09-15T04:35:27.565Z,24.50
2022-09-15T04:36:30.050Z,24.50
2022-09-15T04:37:33.311Z,24.40
2022-09-15T04:38:35.864Z,24.50
2022-09-15T04:39:38.044Z,24.50
2022-09-15T04:40:40.292Z,24.40
2022-09-15T04:41:42.481Z,24.40
2022-09-15T04:42:44.788Z,24.40
2022-09-15T04:43:46.960Z,24.40
2022-09-15T04:44:49.136Z,24.40
2022-09-15T04:45:51.756Z,24.40
2022-09-15T04:46:54.299Z,24.40
2022-09-15T04:47:56.684Z,24.40
2022-09-15T04:48:58.867Z,24.40
2022-09-15T04:50:01.219Z,24.40
2022-09-15T04:51:07.479Z,24.40
2022-09-15T04:52:09.811Z,24.40
2022-09-15T04:53:12.338Z,24.40
2022-09-15T04:54:14.548Z,24.30
2022-09-15T04:55:16.859Z,24.30
2022-09-15T04:56:23.410Z,24.30
2022-09-15T04:57:25.774Z,24.30
2022-09-15T04:58:27.916Z,24.30
2022-09-15T04:59:30.191Z,24.30
2022-09-15T05:00:34.150Z,24.30
2022-09-15T05:01:36.567Z,24.30
2022-09-15T05:02:38.800Z,24.30
2022-09-15T05:03:41.667Z,24.30
2022-09-15T05:04:44.153Z,24.30
2022-09-15T05:05:47.470Z,24.30
2022-09-15T05:06:49.582Z,24.30
2022-09-15T05:07:52.746Z,24.20
2022-09-15T05:08:55.936Z,24.20
2022-09-15T05:09:58.116Z,24.20
2022-09-15T05:11:04.490Z,24.30
2022-09-15T05:12:06.846Z,24.20
2022-09-15T05:13:09.010Z,24.20
2022-09-15T05:14:11.666Z,24.20
2022-09-15T05:15:14.092Z,24.30
2022-09-15T05:16:20.587Z,24.30
2022-09-15T05:17:26.616Z,24.30
2022-09-15T05:18:28.981Z,24.30
2022-09-15T05:19:31.540Z,24.30
2022-09-15T05:20:34.327Z,24.20
2022-09-15T05:21:36.638Z,24.20
2022-09-15T05:22:41.796Z,24.30
2022-09-15T05:23:44.707Z,24.20
2022-09-15T05:24:47.251Z,24.20
2022-09-15T05:25:59.647Z,24.20
2022-09-15T05:27:01.852Z,24.20
2022-09-15T05:28:04.978Z,24.20
2022-09-15T05:29:07.980Z,24.20
2022-09-15T05:30:35.927Z,24.20
2022-09-15T05:31:33.897Z,24.20
2022-09-15T05:32:36.217Z,24.20
2022-09-15T05:33:38.402Z,24.20
2022-09-15T05:34:40.677Z,24.20
2022-09-15T05:35:49.737Z,24.20
2022-09-15T05:36:51.951Z,24.20
2022-09-15T05:37:54.244Z,24.20
2022-09-15T05:38:56.761Z,24.20
2022-09-15T05:39:59.804Z,24.30
2022-09-15T05:41:05.876Z,24.30
2022-09-15T05:42:08.954Z,24.30
2022-09-15T05:43:11.305Z,24.30
2022-09-15T05:44:13.630Z,24.30
2022-09-15T05:45:15.950Z,24.40
2022-09-15T05:46:18.530Z,24.40
2022-09-15T05:47:20.862Z,24.30
2022-09-15T05:48:23.086Z,24.40
2022-09-15T05:49:25.305Z,24.40
2022-09-15T05:50:27.592Z,24.30
2022-09-15T05:51:30.236Z,24.30
2022-09-15T05:52:32.511Z,24.30
2022-09-15T05:53:35.905Z,24.40
2022-09-15T05:54:39.275Z,24.40
2022-09-15T05:55:42.754Z,24.40
2022-09-15T05:56:45.723Z,24.50
2022-09-15T05:57:47.901Z,24.50
2022-09-15T05:58:50.226Z,24.50
2022-09-15T05:59:52.406Z,24.50
2022-09-15T06:00:55.023Z,24.50
2022-09-15T06:01:57.323Z,24.50
2022-09-15T06:02:59.661Z,24.50
2022-09-15T06:04:02.044Z,24.50
2022-09-15T06:05:04.506Z,24.60
2022-09-15T06:06:06.878Z,24.60
2022-09-15T06:07:09.249Z,24.60
2022-09-15T06:08:12.547Z,24.60
2022-09-15T06:09:15.699Z,24.60
2022-09-15T06:10:18.182Z,24.60
2022-09-15T06:11:21.187Z,24.60
2022-09-15T06:12:23.407Z,24.60
2022-09-15T06:13:25.689Z,24.60
2022-09-15T06:14:27.864Z,24.60
2022-09-15T06:15:30.844Z,24.60
2022-09-15T06:16:34.539Z,24.60
2022-09-15T06:17:36.875Z,24.60
2022-09-15T06:18:39.837Z,24.60
2022-09-15T06:19:42.086Z,24.60
2022-09-15T06:20:44.380Z,24.60
2022-09-15T06:21:47.156Z,24.70
2022-09-15T06:22:49.455Z,24.60
2022-09-15T06:23:55.435Z,24.60
2022-09-15T06:24:57.667Z,24.60
2022-09-15T06:26:11.224Z,24.60
2022-09-15T06:27:13.658Z,24.70
2022-09-15T06:28:15.836Z,24.70
2022-09-15T06:29:18.387Z,24.70
2022-09-15T06:30:20.641Z,24.60
2022-09-15T06:31:23.221Z,24.60
2022-09-15T06:32:25.792Z,24.70
2022-09-15T06:33:27.998Z,24.70
2022-09-15T06:34:30.310Z,24.70
2022-09-15T06:35:32.478Z,24.70
2022-09-15T06:36:36.374Z,24.60
2022-09-15T06:37:38.681Z,24.60
2022-09-15T06:38:41.503Z,24.60
2022-09-15T06:39:44.239Z,24.70
2022-09-15T06:40:54.206Z,24.60
2022-09-15T06:42:02.771Z,24.60
2022-09-15T06:43:06.677Z,24.70
2022-09-15T06:44:09.812Z,24.70
2022-09-15T06:45:12.266Z,24.70
2022-09-15T06:46:16.003Z,24.70
2022-09-15T06:47:18.432Z,24.70
2022-09-15T06:48:24.777Z,24.70
2022-09-15T06:49:27.837Z,24.70
2022-09-15T06:50:31.022Z,24.70
2022-09-15T06:51:35.686Z,24.70
2022-09-15T06:52:38.124Z,24.70
2022-09-15T06:53:40.800Z,24.60
2022-09-15T06:54:43.136Z,24.60
2022-09-15T06:55:45.431Z,24.70
2022-09-15T06:56:48.088Z,24.60
2022-09-15T06:57:50.719Z,24.70
2022-09-15T06:58:53.139Z,24.70
2022-09-15T06:59:55.452Z,24.60
2022-09-15T07:01:02.454Z,24.70
2022-09-15T07:02:05.439Z,24.70
2022-09-15T07:03:08.130Z,24.60
2022-09-15T07:04:10.669Z,24.60
2022-09-15T07:05:13.005Z,24.60
2022-09-15T07:06:15.373Z,24.60
2022-09-15T07:07:17.740Z,24.50
2022-09-15T07:08:20.079Z,24.50
2022-09-15T07:09:22.385Z,24.60
2022-09-15T07:10:24.920Z,24.50
2022-09-15T07:11:27.269Z,24.50
2022-09-15T07:12:29.663Z,24.50
2022-09-15T07:13:32.273Z,24.50
2022-09-15T07:14:34.800Z,24.50
2022-09-15T07:15:37.368Z,24.40
2022-09-15T07:16:39.866Z,24.50
2022-09-15T07:17:42.476Z,24.40
2022-09-15T07:18:45.356Z,24.40
2022-09-15T07:19:47.733Z,24.40
2022-09-15T07:20:50.367Z,24.40
2022-09-15T07:21:53.169Z,24.40
2022-09-15T07:22:55.513Z,24.40
2022-09-15T07:23:58.205Z,24.40
2022-09-15T07:25:00.649Z,24.40
2022-09-15T07:26:13.784Z,24.40
2022-09-15T07:27:16.650Z,24.40
2022-09-15T07:28:19.207Z,24.40
2022-09-15T07:29:22.126Z,24.40
2022-09-15T07:30:24.912Z,24.30
2022-09-15T07:31:28.725Z,24.40
2022-09-15T07:32:30.983Z,24.30
2022-09-15T07:33:34.519Z,24.30
2022-09-15T07:34:37.386Z,24.30
2022-09-15T07:35:43.095Z,24.30
2022-09-15T07:36:45.415Z,24.30
2022-09-15T07:37:48.451Z,24.30
2022-09-15T07:38:50.721Z,24.20
2022-09-15T07:39:53.007Z,24.20
2022-09-15T07:40:55.217Z,24.20
2022-09-15T07:41:57.728Z,24.20
2022-09-15T07:43:00.129Z,24.20
2022-09-15T07:44:02.673Z,24.20
2022-09-15T07:45:05.412Z,24.20
2022-09-15T07:46:07.905Z,24.20
2022-09-15T07:47:10.487Z,24.20
2022-09-15T07:48:13.040Z,24.20
2022-09-15T07:49:15.828Z,24.20
2022-09-15T07:50:18.349Z,24.10
2022-09-15T07:51:20.991Z,24.00
2022-09-15T07:52:23.258Z,23.90
2022-09-15T07:53:28.084Z,23.90
2022-09-15T07:54:30.683Z,23.90
2022-09-15T07:55:33.225Z,23.90
2022-09-15T07:56:35.843Z,24.00
2022-09-15T07:57:38.273Z,24.00
2022-09-15T07:58:40.913Z,24.00
2022-09-15T07:59:43.449Z,24.10
2022-09-15T08:00:47.584Z,24.00
2022-09-15T08:01:51.324Z,24.00
2022-09-15T08:02:53.955Z,24.00
2022-09-15T08:03:56.396Z,24.00
2022-09-15T08:04:58.958Z,24.00
2022-09-15T08:06:02.365Z,24.00
2022-09-15T08:07:04.872Z,24.00
2022-09-15T08:08:07.174Z,24.00
2022-09-15T08:09:14.656Z,24.00
2022-09-15T08:10:17.115Z,24.00
2022-09-15T08:11:20.330Z,24.10
2022-09-15T08:12:22.956Z,24.00
2022-09-15T08:13:25.529Z,24.00
2022-09-15T08:14:28.245Z,24.10
2022-09-15T08:15:30.752Z,24.10
2022-09-15T08:16:33.314Z,24.10
2022-09-15T08:17:35.885Z,24.10
2022-09-15T08:18:39.240Z,24.10
2022-09-15T08:19:41.762Z,24.10
2022-09-15T08:20:44.363Z,24.10
2022-09-15T08:21:46.800Z,24.10
2022-09-15T08:22:49.312Z,24.10
2022-09-15T08:23:52.666Z,24.10
2022-09-15T08:24:55.101Z,24.10
2022-09-15T08:25:57.641Z,24.00
2022-09-15T08:27:00.136Z,24.00
2022-09-15T08:28:02.897Z,23.90
2022-09-15T08:29:05.520Z,24.00
2022-09-15T08:30:08.235Z,24.00
2022-09-15T08:31:12.788Z,23.90
2022-09-15T08:32:15.747Z,23.90
2022-09-15T08:33:18.243Z,23.90
2022-09-15T08:34:21.707Z,23.90
2022-09-15T08:35:24.479Z,23.90
2022-09-15T08:36:28.078Z,23.90
2022-09-15T08:37:31.128Z,23.90
2022-09-15T08:38:34.088Z,23.90
2022-09-15T08:39:36.588Z,23.90
2022-09-15T08:40:43.122Z,23.90
2022-09-15T08:41:46.860Z,23.90
2022-09-15T08:42:51.734Z,23.90
2022-09-15T08:43:59.918Z,23.90
2022-09-15T08:45:05.371Z,23.90
2022-09-15T08:46:11.435Z,24.00
2022-09-15T08:47:13.884Z,24.00
2022-09-15T08:48:16.975Z,24.00
2022-09-15T08:49:47.393Z,23.90
2022-09-15T08:50:49.205Z,23.90
2022-09-15T08:51:52.649Z,23.90
2022-09-15T08:52:59.628Z,23.90
2022-09-15T08:54:07.342Z,23.80
2022-09-15T08:55:38.920Z,23.80
2022-09-15T08:56:43.120Z,23.70
2022-09-15T08:57:45.595Z,23.70
2022-09-15T08:58:48.383Z,23.60
2022-09-15T08:59:50.745Z,23.60
2022-09-15T09:01:16.277Z,23.70
2022-09-15T09:02:37.226Z,23.60
2022-09-15T09:03:45.223Z,23.60
2022-09-15T09:05:10.455Z,23.60
2022-09-15T09:06:19.322Z,23.60
2022-09-15T09:07:32.502Z,23.50
2022-09-15T09:08:50.350Z,23.50
2022-09-15T09:09:56.982Z,23.50
2022-09-15T09:11:09.422Z,23.50
2022-09-15T09:12:11.853Z,23.50
2022-09-15T09:13:17.258Z,23.50
2022-09-15T09:14:38.619Z,23.50
2022-09-15T09:15:48.053Z,23.60
2022-09-15T09:16:56.333Z,23.60
2022-09-15T09:17:58.652Z,23.60
2022-09-15T09:19:15.964Z,23.60
2022-09-15T09:20:19.104Z,23.60
2022-09-15T09:21:27.635Z,23.70
2022-09-15T09:22:32.306Z,23.70
2022-09-15T09:23:39.851Z,23.70
2022-09-15T09:24:46.377Z,23.70
2022-09-15T09:25:49.701Z,23.70
2022-09-15T09:26:54.381Z,23.70
2022-09-15T09:27:58.179Z,23.80
2022-09-15T09:29:01.777Z,23.80
2022-09-15T09:30:10.391Z,23.80
2022-09-15T09:31:18.298Z,23.80
2022-09-15T09:32:25.007Z,23.80
2022-09-15T09:33:30.286Z,23.80
2022-09-15T09:34:36.814Z,23.80
2022-09-15T09:35:43.238Z,23.80
2022-09-15T09:36:45.860Z,23.80
2022-09-15T09:37:49.531Z,23.80
2022-09-15T09:38:52.154Z,23.80
2022-09-15T09:39:54.434Z,23.80
2022-09-15T09:41:01.925Z,23.80
2022-09-15T09:42:06.156Z,23.80
2022-09-15T09:43:08.755Z,23.80
2022-09-15T09:44:12.621Z,23.70
2022-09-15T09:45:16.368Z,23.80
2022-09-15T09:46:19.150Z,23.70
2022-09-15T09:47:21.450Z,23.70
2022-09-15T09:48:24.877Z,23.70
2022-09-15T09:49:28.635Z,23.70
2022-09-15T09:50:43.064Z,23.60
2022-09-15T09:51:53.086Z,23.60
2022-09-15T09:52:55.370Z,23.60
2022-09-15T09:54:03.490Z,23.60
2022-09-15T09:55:25.284Z,23.60
2022-09-15T09:56:27.452Z,23.60
2022-09-15T09:57:31.068Z,23.60
2022-09-15T09:58:33.246Z,23.50
2022-09-15T09:59:35.556Z,23.60
2022-09-15T10:00:38.938Z,23.60
2022-09-15T10:01:41.250Z,23.50
2022-09-15T10:02:46.903Z,23.50
2022-09-15T10:03:49.202Z,23.50
2022-09-15T10:04:53.141Z,23.50
2022-09-15T10:06:04.400Z,23.50
2022-09-15T10:07:07.179Z,23.50
2022-09-15T10:08:20.182Z,23.50
2022-09-15T10:09:22.450Z,23.40
2022-09-15T10:10:25.910Z,23.30
2022-09-15T10:11:58.930Z,23.30
2022-09-15T10:13:02.562Z,23.30
2022-09-15T10:14:04.905Z,23.20
2022-09-15T10:15:19.435Z,23.20
2022-09-15T10:16:22.569Z,23.20
2022-09-15T10:17:26.963Z,23.20
2022-09-15T10:18:29.153Z,23.30
2022-09-15T10:19:33.131Z,23.30
2022-09-15T10:20:38.807Z,23.30
2022-09-15T10:21:41.060Z,23.30
2022-09-15T10:22:43.761Z,23.30
2022-09-15T10:23:45.924Z,23.30
2022-09-15T10:24:50.029Z,23.30
2022-09-15T10:26:01.344Z,23.20
2022-09-15T10:27:15.649Z,23.30
2022-09-15T10:28:19.206Z,23.30
2022-09-15T10:29:23.265Z,23.30
2022-09-15T10:30:25.835Z,23.30
2022-09-15T10:31:31.998Z,23.40
2022-09-15T10:32:34.451Z,23.40
2022-09-15T10:33:41.880Z,23.40
2022-09-15T10:34:44.448Z,23.30
2022-09-15T10:35:46.958Z,23.30
2022-09-15T10:36:49.395Z,23.30
2022-09-15T10:37:51.655Z,23.30
2022-09-15T10:39:02.581Z,23.30
2022-09-15T10:40:10.905Z,23.30
2022-09-15T10:41:25.752Z,23.30
2022-09-15T10:42:46.274Z,23.30
2022-09-15T10:43:51.549Z,23.20
2022-09-15T10:44:53.776Z,23.20
2022-09-15T10:46:01.411Z,23.10
2022-09-15T10:47:22.148Z,23.00
2022-09-15T10:48:43.058Z,23.00
2022-09-15T10:49:48.170Z,22.90
2022-09-15T10:50:56.048Z,22.90
2022-09-15T10:52:07.034Z,22.80
2022-09-15T10:53:28.822Z,22.80
2022-09-15T10:54:58.347Z,22.80
2022-09-15T10:56:03.466Z,22.70
2022-09-15T10:57:24.119Z,22.70
2022-09-15T10:58:26.424Z,22.60
2022-09-15T10:59:43.241Z,22.60
2022-09-15T11:00:45.438Z,22.60
2022-09-15T11:01:50.692Z,22.60
2022-09-15T11:03:05.574Z,22.60
2022-09-15T11:04:19.832Z,22.60
2022-09-15T11:05:32.448Z,22.70
2022-09-15T11:06:39.091Z,22.60
2022-09-15T11:08:00.616Z,22.70
2022-09-15T11:09:24.084Z,22.70
2022-09-15T11:10:30.216Z,22.70
2022-09-15T11:11:33.682Z,22.80
2022-09-15T11:12:49.280Z,22.80
2022-09-15T11:13:59.534Z,22.80
2022-09-15T11:15:02.438Z,22.80
2022-09-15T11:16:26.379Z,22.80
2022-09-15T11:17:40.137Z,22.70
2022-09-15T11:18:46.541Z,22.80
2022-09-15T11:19:58.856Z,22.80
2022-09-15T11:21:01.712Z,22.80
2022-09-15T11:22:10.734Z,22.90
2022-09-15T11:23:16.790Z,22.90
2022-09-15T11:24:38.101Z,22.90
2022-09-15T11:25:44.376Z,22.90
2022-09-15T11:26:52.775Z,23.00
2022-09-15T11:28:06.286Z,23.00
2022-09-15T11:29:24.385Z,23.00
2022-09-15T11:30:31.911Z,23.00
2022-09-15T11:31:39.907Z,23.00
2022-09-15T11:32:45.883Z,23.10
2022-09-15T11:34:05.011Z,23.10
2022-09-15T11:35:23.117Z,23.10
2022-09-15T11:36:31.923Z,23.10
2022-09-15T11:37:39.309Z,23.10
2022-09-15T11:38:48.372Z,23.10
2022-09-15T11:39:51.561Z,23.20
2022-09-15T11:40:54.970Z,23.20
2022-09-15T11:42:13.464Z,23.20
2022-09-15T11:43:16.120Z,23.20
2022-09-15T11:44:39.456Z,23.20
2022-09-15T11:45:45.796Z,23.20
2022-09-15T11:47:05.886Z,23.30
2022-09-15T11:48:15.102Z,23.30
2022-09-15T11:49:23.425Z,23.30
2022-09-15T11:50:34.703Z,23.30
2022-09-15T11:51:41.728Z,23.30
2022-09-15T11:52:56.906Z,23.30
2022-09-15T11:54:26.424Z,23.30
2022-09-15T11:55:34.196Z,23.30
2022-09-15T11:56:40.955Z,23.30
2022-09-15T11:57:51.548Z,23.30
2022-09-15T11:59:09.862Z,23.30
2022-09-15T12:00:14.900Z,23.30
2022-09-15T12:01:20.307Z,23.30
2022-09-15T12:02:26.288Z,23.30
2022-09-15T12:03:50.879Z,23.30
2022-09-15T12:05:24.037Z,23.30
2022-09-15T12:06:46.286Z,23.30
2022-09-15T12:07:55.508Z,23.30
2022-09-15T12:09:05.836Z,23.30
2022-09-15T12:10:18.152Z,23.30
2022-09-15T12:11:22.918Z,23.30
2022-09-15T12:12:29.350Z,23.30
2022-09-15T12:13:33.431Z,23.30
2022-09-15T12:14:37.294Z,23.30
2022-09-15T12:15:39.926Z,23.30
2022-09-15T12:16:42.830Z,23.30
2022-09-15T12:17:52.310Z,23.30
2022-09-15T12:18:56.428Z,23.40
2022-09-15T12:20:01.977Z,23.40
2022-09-15T12:21:08.661Z,23.40
2022-09-15T12:22:25.127Z,23.40
2022-09-15T12:23:34.130Z,23.40
2022-09-15T12:24:49.714Z,23.50
2022-09-15T12:25:59.240Z,23.40
2022-09-15T12:27:02.435Z,23.40
2022-09-15T12:28:23.558Z,23.40
2022-09-15T12:29:26.004Z,23.40
2022-09-15T12:30:38.735Z,23.40
2022-09-15T12:31:41.080Z,23.40
2022-09-15T12:32:43.459Z,23.40
2022-09-15T12:33:46.985Z,23.40
2022-09-15T12:34:58.528Z,23.50
2022-09-15T12:36:19.724Z,23.50
2022-09-15T12:37:22.499Z,23.50
2022-09-15T12:38:30.352Z,23.50
2022-09-15T12:39:42.376Z,23.50
2022-09-15T12:40:44.803Z,23.50
2022-09-15T12:41:51.803Z,23.60
2022-09-15T12:42:54.343Z,23.60
2022-09-15T12:44:04.254Z,23.60
2022-09-15T12:45:19.557Z,23.60
2022-09-15T12:46:22.092Z,23.60
2022-09-15T12:47:39.233Z,23.60
2022-09-15T12:48:46.739Z,23.50
2022-09-15T12:49:50.855Z,23.50
2022-09-15T12:50:54.297Z,23.50
2022-09-15T12:51:57.112Z,23.60
2022-09-15T12:52:59.545Z,23.60
2022-09-15T12:54:04.689Z,23.60
2022-09-15T12:55:15.678Z,23.60
2022-09-15T12:56:26.276Z,23.60
2022-09-15T12:57:34.112Z,23.60
2022-09-15T12:58:36.996Z,23.60
2022-09-15T12:59:39.816Z,23.60
2022-09-15T13:01:06.842Z,23.60
2022-09-15T13:02:26.701Z,23.60
2022-09-15T13:03:57.638Z,23.60
2022-09-15T13:05:00.078Z,23.60
2022-09-15T13:06:22.350Z,23.60
2022-09-15T13:07:35.428Z,23.60
2022-09-15T13:08:37.942Z,23.50
2022-09-15T13:09:44.458Z,23.50
2022-09-15T13:11:02.027Z,23.50
2022-09-15T13:12:05.691Z,23.50
2022-09-15T13:13:12.097Z,23.50
2022-09-15T13:14:29.166Z,23.50
2022-09-15T13:15:34.260Z,23.50
2022-09-15T13:16:40.849Z,23.50
2022-09-15T13:17:45.533Z,23.50
2022-09-15T13:18:54.280Z,23.50
2022-09-15T13:19:59.786Z,23.60
2022-09-15T13:21:05.277Z,23.60
2022-09-15T13:22:07.647Z,23.60
2022-09-15T13:23:14.120Z,23.60
2022-09-15T13:24:25.335Z,23.60
2022-09-15T13:25:29.619Z,23.60
2022-09-15T13:26:32.121Z,23.70
2022-09-15T13:27:36.283Z,23.70
2022-09-15T13:28:38.721Z,23.70
2022-09-15T13:29:45.333Z,23.70
2022-09-15T13:30:56.993Z,23.70
2022-09-15T13:32:09.121Z,23.70
2022-09-15T13:35:03.112Z,23.70
2022-09-15T13:35:04.123Z,23.80
2022-09-15T13:36:19.869Z,23.80
2022-09-15T13:39:06.612Z,23.80
2022-09-15T13:40:09.702Z,23.80
2022-09-15T13:41:33.259Z,23.80
2022-09-15T13:42:35.841Z,23.80
2022-09-15T13:43:57.860Z,23.80
2022-09-15T13:45:11.930Z,23.80
2022-09-15T13:46:25.023Z,23.80
2022-09-15T13:47:30.304Z,23.90
2022-09-15T13:48:41.467Z,23.90
2022-09-15T13:49:46.607Z,23.90
2022-09-15T13:51:00.446Z,23.90
2022-09-15T13:52:05.897Z,23.90
2022-09-15T13:53:17.319Z,23.90
2022-09-15T13:54:19.846Z,23.90
2022-09-15T13:55:27.698Z,23.90
2022-09-15T13:56:32.596Z,23.90
2022-09-15T13:59:11.414Z,23.90
2022-09-15T14:00:22.946Z,24.00
2022-09-15T14:01:25.892Z,23.90
2022-09-15T14:02:29.294Z,23.90
2022-09-15T14:03:37.335Z,23.90
2022-09-15T14:04:39.712Z,23.80
2022-09-15T14:05:42.107Z,23.80
2022-09-15T14:06:45.688Z,23.70
2022-09-15T14:08:01.358Z,23.70
2022-09-15T14:09:13.615Z,23.70
2022-09-15T14:10:21.773Z,23.80